Time;durP1;ratioP1;P1;durP2;ratioP2;P2;SDS_P1;SDS_P2;PMS_P1;PMS_P2;Temp;Humidity;BMP_temperature;BMP_pressure;BME280_temperature;BME280_humidity;BME280_pressure;Samples;Min_cycle;Max_cycle;Signal;HPM_P1;HPM_P2
2021/10/08 00:00:40;;;;;;;10.70;6.70;;;;;;;4.52;60.39;101526.39;116911;1199;22326;-56
2021/10/08 00:03:08;;;;;;;11.00;6.60;;;;;;;4.47;60.56;101524.91;116782;1197;137047;-56
2021/10/08 00:05:37;;;;;;;15.80;6.50;;;;;;;4.41;60.55;101525.59;116916;1199;22336;-56
2021/10/08 00:08:05;;;;;;;15.10;7.00;;;;;;;4.36;60.88;101527.36;116838;1197;137112;-56
2021/10/08 00:10:34;;;;;;;12.00;6.40;;;;;;;4.30;61.10;101528.80;116852;1198;23538;-56
2021/10/08 00:13:22;;;;;;;9.30;6.70;;;;;;;4.22;61.30;101529.73;116868;1199;138291;-56
2021/10/08 00:15:50;;;;;;;9.70;6.70;;;;;;;4.14;61.60;101532.36;117042;1198;22396;-56
2021/10/08 00:18:18;;;;;;;11.10;7.40;;;;;;;4.05;61.81;101530.55;116964;1192;22907;-56
2021/10/08 00:20:46;;;;;;;10.80;6.70;;;;;;;3.94;62.22;101533.13;116873;1198;136657;-56
2021/10/08 00:23:14;;;;;;;13.70;7.40;;;;;;;3.83;62.36;101531.63;116932;1198;25272;-56
2021/10/08 00:25:43;;;;;;;14.60;6.50;;;;;;;3.73;62.82;101534.70;116744;1197;137156;-55
2021/10/08 00:28:11;;;;;;;11.70;6.00;;;;;;;3.66;63.13;101538.52;117014;1199;22132;-56
2021/10/08 00:30:39;;;;;;;10.10;6.10;;;;;;;3.61;63.59;101540.48;116780;1194;22329;-56
2021/10/08 00:33:07;;;;;;;10.10;5.90;;;;;;;3.54;63.65;101535.25;116933;1198;137690;-56
2021/10/08 00:35:36;;;;;;;10.40;6.00;;;;;;;3.47;64.02;101537.94;116781;1199;22392;-56
2021/10/08 00:38:05;;;;;;;13.00;5.60;;;;;;;3.40;64.33;101537.45;116682;1199;137952;-56
2021/10/08 00:40:36;;;;;;;13.10;5.60;;;;;;;3.35;64.63;101540.88;116980;1199;22387;-56
2021/10/08 00:43:04;;;;;;;13.30;5.80;;;;;;;3.30;64.70;101541.95;116979;1198;22311;-56
2021/10/08 00:45:35;;;;;;;12.60;5.90;;;;;;;3.25;65.06;101542.84;116920;1199;136629;-56
2021/10/08 00:48:08;;;;;;;12.60;6.20;;;;;;;3.21;65.05;101544.86;116926;1184;22318;-56
2021/10/08 00:50:41;;;;;;;15.20;8.10;;;;;;;3.16;65.32;101540.94;116793;1199;137152;-56
2021/10/08 00:53:09;;;;;;;11.30;6.00;;;;;;;3.10;65.48;101536.56;116943;1184;22372;-56
2021/10/08 00:55:44;;;;;;;14.00;6.00;;;;;;;3.02;65.65;101532.89;116799;1197;137229;-56
2021/10/08 00:58:13;;;;;;;11.20;7.20;;;;;;;2.99;65.88;101538.56;116812;1198;22305;-56
2021/10/08 01:00:43;;;;;;;16.90;6.80;;;;;;;2.94;66.18;101541.45;117006;1198;22313;-56
2021/10/08 01:03:12;;;;;;;20.90;7.20;;;;;;;2.91;66.15;101537.68;116677;1198;137463;-56
2021/10/08 01:05:41;;;;;;;16.80;7.20;;;;;;;2.87;66.41;101537.38;116876;1199;22300;-56
2021/10/08 01:08:09;;;;;;;15.40;7.70;;;;;;;2.83;66.51;101537.74;116650;1199;137793;-57
2021/10/08 01:10:38;;;;;;;27.70;8.80;;;;;;;2.82;66.71;101537.34;116731;1199;22342;-56
2021/10/08 01:13:07;;;;;;;26.90;8.90;;;;;;;2.80;66.74;101534.39;116970;1198;22320;-56
2021/10/08 01:15:38;;;;;;;26.30;9.00;;;;;;;2.85;66.81;101538.30;116748;1198;137652;-55
2021/10/08 01:18:07;;;;;;;27.70;8.50;;;;;;;2.88;66.70;101535.28;116847;1197;22816;-55
2021/10/08 01:20:36;;;;;;;27.00;9.30;;;;;;;2.93;66.62;101537.98;116710;1199;137524;-55
2021/10/08 01:23:08;;;;;;;25.70;8.70;;;;;;;2.98;66.39;101536.53;116754;1199;22353;-55
2021/10/08 01:25:42;;;;;;;25.60;10.10;;;;;;;3.03;66.52;101537.40;116830;1192;138581;-55
2021/10/08 01:28:13;;;;;;;35.30;10.90;;;;;;;3.08;66.29;101539.08;116747;1199;22307;-55
2021/10/08 01:30:43;;;;;;;31.00;9.70;;;;;;;3.09;66.33;101537.84;116888;1199;23249;-55
2021/10/08 01:33:11;;;;;;;21.50;9.40;;;;;;;3.13;66.20;101544.49;116625;1199;139336;-55
2021/10/08 01:35:43;;;;;;;37.60;9.50;;;;;;;3.15;66.30;101540.27;116677;1199;23025;-55
2021/10/08 01:38:11;;;;;;;33.90;9.80;;;;;;;3.17;66.00;101540.39;116668;1199;137372;-55
2021/10/08 01:40:39;;;;;;;28.50;8.10;;;;;;;3.21;66.12;101542.37;116769;1199;25032;-56
2021/10/08 01:43:14;;;;;;;33.80;8.60;;;;;;;3.24;65.87;101538.98;116905;1197;22313;-55
2021/10/08 01:45:42;;;;;;;26.40;8.80;;;;;;;3.31;66.03;101544.08;116629;1199;137886;-55
2021/10/08 01:48:12;;;;;;;30.40;8.70;;;;;;;3.34;65.84;101540.71;116501;1201;23494;-55
2021/10/08 01:50:41;;;;;;;25.70;8.60;;;;;;;3.41;65.77;101538.13;116404;1201;136615;-55
2021/10/08 01:53:10;;;;;;;30.50;8.40;;;;;;;3.45;65.59;101534.74;116413;1201;22345;-56
2021/10/08 01:55:38;;;;;;;29.80;9.10;;;;;;;3.49;65.49;101532.02;116423;1201;136944;-60
2021/10/08 01:58:06;;;;;;;28.50;8.50;;;;;;;3.53;65.46;101531.54;116564;1201;23095;-60
2021/10/08 02:00:35;;;;;;;24.30;9.30;;;;;;;3.55;65.26;101534.04;116582;1201;22326;-61
2021/10/08 02:03:15;;;;;;;26.30;9.10;;;;;;;3.59;65.38;101535.55;116379;1201;137295;-60
2021/10/08 02:05:43;;;;;;;32.50;10.10;;;;;;;3.61;65.13;101539.78;116504;1201;22249;-60
2021/10/08 02:08:14;;;;;;;26.90;7.90;;;;;;;3.63;65.05;101544.40;116329;1195;138547;-60
2021/10/08 02:10:44;;;;;;;22.50;9.20;;;;;;;3.62;65.06;101547.77;116514;1201;22402;-61
2021/10/08 02:13:14;;;;;;;26.40;8.60;;;;;;;3.58;65.15;101549.09;116444;1201;22267;-60
2021/10/08 02:15:45;;;;;;;28.70;10.00;;;;;;;3.55;65.23;101554.02;116405;1201;136597;-60
2021/10/08 02:18:13;;;;;;;24.70;9.70;;;;;;;3.54;65.42;101555.39;116475;1201;23148;-60
2021/10/08 02:20:41;;;;;;;31.00;11.00;;;;;;;3.51;65.52;101553.52;116372;1194;136852;-60
2021/10/08 02:23:11;;;;;;;32.50;12.60;;;;;;;3.48;65.58;101552.96;116535;1201;22909;-60
2021/10/08 02:25:41;;;;;;;40.80;16.40;;;;;;;3.47;65.64;101551.81;115533;1199;138104;-60
2021/10/08 02:28:09;;;;;;;43.70;20.40;;;;;;;3.47;65.69;101555.02;112549;1186;25097;-60
2021/10/08 02:30:37;;;;;;;47.90;21.10;;;;;;;3.47;65.72;101552.31;112424;1198;25076;-60
2021/10/08 02:33:05;;;;;;;46.50;18.60;;;;;;;3.46;65.64;101551.17;112499;1199;137571;-60
2021/10/08 02:35:33;;;;;;;38.40;19.40;;;;;;;3.48;65.63;101553.88;112563;1199;25116;-60
2021/10/08 02:38:04;;;;;;;40.90;17.90;;;;;;;3.49;65.74;101559.64;112439;1199;138541;-60
2021/10/08 02:40:33;;;;;;;35.80;15.20;;;;;;;3.51;65.64;101568.31;112516;1199;22440;-60
2021/10/08 02:43:02;;;;;;;38.70;13.50;;;;;;;3.51;65.72;101570.94;116742;1199;22354;-61
2021/10/08 02:45:32;;;;;;;38.30;12.90;;;;;;;3.51;65.54;101569.92;116724;1199;138676;-60
2021/10/08 02:48:01;;;;;;;35.90;11.20;;;;;;;3.52;65.73;101573.60;116888;1198;22310;-60
2021/10/08 02:50:30;;;;;;;35.20;12.30;;;;;;;3.53;65.49;101576.85;116610;1198;137131;-60
2021/10/08 02:52:58;;;;;;;26.60;9.70;;;;;;;3.52;65.25;101573.91;116863;1198;23163;-60
2021/10/08 02:55:26;;;;;;;28.20;10.10;;;;;;;3.53;65.21;101577.73;116714;1199;137930;-60
2021/10/08 02:57:55;;;;;;;27.30;10.20;;;;;;;3.54;64.91;101581.40;116935;1199;22364;-60
2021/10/08 03:00:23;;;;;;;33.40;10.00;;;;;;;3.54;64.93;101584.90;116766;1199;22314;-61
2021/10/08 03:02:51;;;;;;;33.20;10.10;;;;;;;3.51;64.86;101584.45;116682;1199;137179;-61
2021/10/08 03:05:19;;;;;;;28.00;10.30;;;;;;;3.47;64.77;101591.10;116944;1199;22186;-60
2021/10/08 03:07:47;;;;;;;30.70;10.80;;;;;;;3.45;64.89;101593.55;116819;1199;138183;-60
2021/10/08 03:10:17;;;;;;;33.80;10.50;;;;;;;3.44;64.77;101588.84;116879;1198;22312;-61
2021/10/08 03:12:46;;;;;;;29.00;9.70;;;;;;;3.43;64.66;101596.98;116812;1199;22337;-60
2021/10/08 03:15:14;;;;;;;27.30;8.70;;;;;;;3.40;64.65;101594.80;116712;1199;137032;-60
2021/10/08 03:17:43;;;;;;;25.30;9.20;;;;;;;3.38;64.49;101593.21;116765;1199;22289;-60
2021/10/08 03:20:12;;;;;;;24.80;9.70;;;;;;;3.35;64.41;101588.52;116654;1199;137490;-60
2021/10/08 03:22:40;;;;;;;26.50;8.80;;;;;;;3.35;64.62;101590.67;116892;1198;22139;-60
2021/10/08 03:25:09;;;;;;;32.40;9.40;;;;;;;3.34;64.50;101593.95;116827;1199;22961;-59
2021/10/08 03:27:38;;;;;;;33.90;10.10;;;;;;;3.34;64.51;101595.02;116520;1199;137597;-60
2021/10/08 03:30:09;;;;;;;20.20;8.20;;;;;;;3.34;64.47;101600.27;116855;1199;22318;-60
2021/10/08 03:32:39;;;;;;;27.10;10.10;;;;;;;3.35;64.47;101600.36;116735;1198;138835;-60
2021/10/08 03:35:07;;;;;;;22.50;8.40;;;;;;;3.35;64.56;101610.73;116937;1198;22970;-60
2021/10/08 03:40:09;;;;;;;29.10;9.40;;;;;;;3.36;64.58;101611.02;116786;1199;22350;-60
2021/10/08 03:42:40;;;;;;;36.80;9.80;;;;;;;3.37;64.78;101610.20;116946;1198;22279;-60
2021/10/08 03:45:13;;;;;;;23.80;10.50;;;;;;;3.38;64.59;101608.70;116724;1199;138374;-64
2021/10/08 03:50:31;;;;;;;31.20;10.60;;;;;;;3.34;64.33;101612.64;116450;1200;137688;-60
2021/10/08 03:52:59;;;;;;;39.40;10.90;;;;;;;3.31;64.70;101608.11;116808;1198;22383;-60
2021/10/08 03:55:27;;;;;;;23.20;11.00;;;;;;;3.30;64.67;101613.69;116862;1198;138229;-60
2021/10/08 03:57:57;;;;;;;25.90;10.50;;;;;;;3.28;64.80;101616.40;116939;1199;22435;-60
2021/10/08 04:00:25;;;;;;;30.20;10.70;;;;;;;3.27;64.71;101621.64;116825;1198;22237;-61
2021/10/08 04:03:01;;;;;;;37.80;12.90;;;;;;;3.27;64.64;101621.71;116796;1199;138754;-60
2021/10/08 04:05:29;;;;;;;29.50;10.60;;;;;;;3.27;64.79;101618.95;116764;1199;22266;-60
2021/10/08 04:07:59;;;;;;;30.80;10.80;;;;;;;3.28;64.79;101615.33;116743;1199;142154;-61
2021/10/08 04:10:28;;;;;;;25.90;9.50;;;;;;;3.32;64.78;101619.55;116810;1198;22243;-61
2021/10/08 04:12:56;;;;;;;36.00;10.50;;;;;;;3.34;64.91;101617.73;116846;1199;23271;-60
2021/10/08 04:15:24;;;;;;;26.70;9.50;;;;;;;3.38;64.87;101620.49;116617;1199;138663;-60
2021/10/08 04:17:53;;;;;;;27.70;9.90;;;;;;;3.41;64.82;101619.44;116795;1199;22264;-60
2021/10/08 04:20:21;;;;;;;34.80;9.30;;;;;;;3.44;64.65;101619.49;116695;1199;136979;-60
2021/10/08 04:22:49;;;;;;;25.70;10.20;;;;;;;3.46;64.70;101618.38;116770;1199;22321;-60
2021/10/08 04:25:18;;;;;;;25.60;9.90;;;;;;;3.48;64.62;101621.91;116617;1193;22265;-60
2021/10/08 04:27:46;;;;;;;27.40;10.10;;;;;;;3.49;64.61;101621.63;116581;1199;137891;-60
2021/10/08 04:30:14;;;;;;;29.70;10.30;;;;;;;3.52;64.60;101620.13;116919;1199;22266;-60
2021/10/08 04:32:44;;;;;;;30.20;10.80;;;;;;;3.53;64.56;101616.19;116642;1199;138535;-60
2021/10/08 04:35:17;;;;;;;37.60;10.40;;;;;;;3.55;64.28;101618.88;116799;1199;22540;-60
2021/10/08 04:37:45;;;;;;;30.00;10.80;;;;;;;3.57;64.43;101619.41;116815;1198;138275;-60
2021/10/08 04:40:14;;;;;;;25.40;11.20;;;;;;;3.59;64.43;101626.74;116831;1199;22132;-61
2021/10/08 04:42:43;;;;;;;33.60;10.40;;;;;;;3.63;64.50;101624.65;116871;1184;22295;-61
2021/10/08 04:45:13;;;;;;;30.80;11.30;;;;;;;3.67;64.26;101627.00;116671;1199;137753;-60
2021/10/08 04:47:44;;;;;;;30.20;10.30;;;;;;;3.70;64.28;101626.68;116765;1199;22319;-60
2021/10/08 04:50:12;;;;;;;32.40;10.50;;;;;;;3.74;64.56;101627.62;116696;1199;137963;-59
2021/10/08 04:52:43;;;;;;;36.30;11.20;;;;;;;3.81;64.19;101628.54;116715;1196;23399;-60
2021/10/08 04:55:11;;;;;;;36.30;11.20;;;;;;;3.85;64.05;101626.28;116853;1199;22316;-59
2021/10/08 04:57:40;;;;;;;39.80;11.50;;;;;;;3.94;63.87;101632.57;116641;1197;138827;-60
2021/10/08 05:00:09;;;;;;;37.90;10.80;;;;;;;4.03;63.82;101630.66;116772;1199;22223;-60
2021/10/08 05:02:37;;;;;;;29.60;10.70;;;;;;;4.12;63.73;101631.69;116643;1198;140086;-61
2021/10/08 05:05:06;;;;;;;30.80;10.40;;;;;;;4.21;63.59;101633.02;116863;1198;22468;-60
2021/10/08 05:07:34;;;;;;;38.60;11.30;;;;;;;4.32;63.31;101634.95;116657;1199;137398;-60
2021/10/08 05:10:03;;;;;;;38.60;10.80;;;;;;;4.41;63.14;101633.52;116763;1199;23087;-60
2021/10/08 05:12:32;;;;;;;36.80;11.80;;;;;;;4.52;62.57;101634.84;116941;1199;22306;-60
2021/10/08 05:15:01;;;;;;;40.50;11.60;;;;;;;4.61;62.79;101635.84;116615;1199;137203;-60
2021/10/08 05:17:30;;;;;;;29.40;10.90;;;;;;;4.69;62.22;101636.45;116779;1199;22164;-60
2021/10/08 05:19:58;;;;;;;38.90;11.70;;;;;;;4.74;61.43;101635.88;116681;1199;138944;-60
2021/10/08 05:22:39;;;;;;;34.70;11.60;;;;;;;4.77;61.11;101636.23;116691;1199;23004;-60
2021/10/08 05:25:08;;;;;;;38.90;11.10;;;;;;;4.79;60.75;101633.16;116804;1199;22321;-60
2021/10/08 05:27:37;;;;;;;32.60;11.50;;;;;;;4.84;60.49;101639.52;116822;1198;137483;-60
2021/10/08 05:30:07;;;;;;;40.80;12.40;;;;;;;4.88;60.50;101637.23;116733;1199;22563;-60
2021/10/08 05:32:35;;;;;;;37.00;9.80;;;;;;;4.91;60.44;101636.13;116671;1199;137953;-60
2021/10/08 05:35:03;;;;;;;37.00;11.90;;;;;;;4.93;60.36;101632.86;116892;1198;22776;-60
2021/10/08 05:37:33;;;;;;;28.90;9.70;;;;;;;4.97;60.36;101634.75;116726;1199;137283;-60
2021/10/08 05:40:03;;;;;;;41.20;11.50;;;;;;;5.01;60.11;101632.70;116634;1187;22263;-60
2021/10/08 05:42:34;;;;;;;33.70;10.80;;;;;;;5.06;59.84;101635.79;116634;1200;22259;-61
2021/10/08 05:45:02;;;;;;;30.50;10.90;;;;;;;5.10;59.83;101636.56;116455;1200;137152;-61
2021/10/08 05:47:31;;;;;;;28.50;11.60;;;;;;;5.16;59.93;101643.09;116526;1200;23007;-61
2021/10/08 05:50:00;;;;;;;29.40;11.10;;;;;;;5.22;59.66;101644.69;116476;1200;138268;-61
2021/10/08 05:52:29;;;;;;;33.50;11.10;;;;;;;5.28;59.76;101648.98;116617;1200;22253;-60
2021/10/08 05:54:57;;;;;;;29.10;11.30;;;;;;;5.33;59.52;101648.19;116592;1200;22356;-61
2021/10/08 05:57:25;;;;;;;42.60;13.30;;;;;;;5.39;59.50;101647.56;116537;1200;138618;-62
2021/10/08 05:59:54;;;;;;;40.30;12.40;;;;;;;5.45;59.42;101649.26;116615;1200;22172;-61
2021/10/08 06:02:22;;;;;;;38.80;10.80;;;;;;;5.50;59.05;101646.05;116489;1200;137269;-61
2021/10/08 06:04:50;;;;;;;32.50;12.00;;;;;;;5.55;58.77;101648.61;116632;1200;22424;-61
2021/10/08 06:07:19;;;;;;;40.30;12.20;;;;;;;5.55;58.96;101644.76;116610;1200;22317;-61
2021/10/08 06:09:47;;;;;;;39.00;12.40;;;;;;;5.60;58.38;101649.42;116553;1200;138209;-61
2021/10/08 06:12:15;;;;;;;39.10;12.60;;;;;;;5.62;58.35;101651.27;116768;1199;23140;-60
2021/10/08 06:14:44;;;;;;;44.40;12.10;;;;;;;5.64;58.15;101648.48;116721;1199;137789;-61
2021/10/08 06:17:12;;;;;;;42.10;11.90;;;;;;;5.66;58.32;101647.66;116730;1199;22369;-60
2021/10/08 06:19:41;;;;;;;37.10;12.50;;;;;;;5.70;58.28;101648.16;116776;1199;138093;-60
2021/10/08 06:22:09;;;;;;;51.00;13.80;;;;;;;5.73;58.10;101646.70;116766;1199;22358;-58
2021/10/08 06:24:37;;;;;;;34.10;13.10;;;;;;;5.76;57.88;101647.48;116770;1199;22334;-61
2021/10/08 06:27:05;;;;;;;41.90;12.10;;;;;;;5.79;58.13;101648.59;116664;1199;138532;-61
2021/10/08 06:29:33;;;;;;;29.60;11.40;;;;;;;5.82;58.09;101646.39;117025;1198;22988;-58
2021/10/08 06:32:02;;;;;;;45.10;12.10;;;;;;;5.87;58.09;101648.04;116627;1199;137445;-61
2021/10/08 06:34:30;;;;;;;40.10;13.00;;;;;;;5.90;58.39;101647.98;116780;1199;22294;-60
2021/10/08 06:36:58;;;;;;;40.40;13.20;;;;;;;5.96;58.34;101646.77;116797;1199;22170;-61
2021/10/08 06:39:27;;;;;;;34.90;11.70;;;;;;;6.03;58.20;101648.90;116613;1199;139066;-60
2021/10/08 06:41:56;;;;;;;36.50;12.50;;;;;;;6.12;57.76;101641.01;116954;1193;23146;-59
2021/10/08 06:44:29;;;;;;;30.40;11.70;;;;;;;6.22;57.64;101645.64;116693;1199;138279;-59
2021/10/08 06:46:59;;;;;;;41.30;12.90;;;;;;;6.30;57.39;101641.56;116759;1199;23275;-59
2021/10/08 06:49:27;;;;;;;22.90;11.70;;;;;;;6.39;57.55;101634.60;116677;1199;137443;-59
2021/10/08 06:51:56;;;;;;;25.00;10.50;;;;;;;6.49;57.21;101640.42;116601;1199;22272;-59
2021/10/08 06:54:26;;;;;;;32.90;10.30;;;;;;;6.57;57.23;101640.09;116867;1198;23488;-59
2021/10/08 06:56:54;;;;;;;25.60;10.60;;;;;;;6.62;56.74;101639.29;113727;1193;139081;-60
2021/10/08 06:59:27;;;;;;;22.50;10.30;;;;;;;6.69;56.28;101638.58;112484;1199;22473;-60
2021/10/08 07:01:56;;;;;;;24.30;10.30;;;;;;;6.74;55.83;101630.73;116809;1198;138075;-60
2021/10/08 07:04:25;;;;;;;21.40;9.50;;;;;;;6.79;55.55;101630.82;116747;1199;23056;-60
2021/10/08 07:06:54;;;;;;;26.00;9.90;;;;;;;6.81;55.72;101630.29;116877;1199;23084;-60
2021/10/08 07:09:40;;;;;;;23.50;9.60;;;;;;;6.85;55.92;101630.56;116851;1199;138122;-60
2021/10/08 07:12:08;;;;;;;27.80;10.70;;;;;;;6.93;55.61;101630.33;116786;1199;22318;-60
2021/10/08 07:14:37;;;;;;;36.00;11.90;;;;;;;7.07;54.82;101630.57;116748;1198;137297;-60
2021/10/08 07:17:06;;;;;;;30.40;9.90;;;;;;;7.21;53.94;101630.17;116814;1199;22148;-60
2021/10/08 07:19:35;;;;;;;31.40;10.60;;;;;;;7.32;53.33;101628.81;116681;1199;137253;-60
2021/10/08 07:22:04;;;;;;;30.60;11.10;;;;;;;7.42;53.06;101627.11;116787;1199;23382;-60
2021/10/08 07:24:33;;;;;;;30.50;10.20;;;;;;;7.50;52.95;101628.27;116806;1199;22545;-60
2021/10/08 07:27:04;;;;;;;28.90;9.60;;;;;;;7.56;52.63;101627.52;116626;1199;137941;-60
2021/10/08 07:29:33;;;;;;;30.10;11.80;;;;;;;7.62;52.79;101625.03;116702;1199;23068;-60
2021/10/08 07:32:02;;;;;;;24.90;9.50;;;;;;;7.67;52.91;101626.89;116708;1194;137707;-59
2021/10/08 07:34:31;;;;;;;25.90;11.50;;;;;;;7.72;51.72;101623.01;116850;1199;22315;-60
2021/10/08 07:36:59;;;;;;;23.90;9.40;;;;;;;7.76;51.71;101621.80;116887;1199;22257;-60
2021/10/08 07:39:28;;;;;;;19.90;8.70;;;;;;;7.78;51.54;101623.34;116690;1199;137041;-60
2021/10/08 07:41:56;;;;;;;21.70;8.40;;;;;;;7.81;52.10;101621.10;116855;1199;22243;-59
2021/10/08 07:44:24;;;;;;;16.30;8.50;;;;;;;7.85;51.50;101620.70;116711;1198;136882;-60
2021/10/08 07:46:53;;;;;;;17.10;8.00;;;;;;;7.95;51.84;101620.45;116807;1199;22509;-60
2021/10/08 07:49:22;;;;;;;15.20;8.30;;;;;;;8.02;51.68;101621.48;116843;1199;23038;-60
2021/10/08 07:51:50;;;;;;;14.30;8.30;;;;;;;8.09;51.20;101621.84;116718;1199;137988;-60
2021/10/08 07:54:19;;;;;;;17.20;8.50;;;;;;;8.14;51.27;101617.64;116830;1198;23449;-60
2021/10/08 07:56:47;;;;;;;16.80;8.40;;;;;;;8.16;51.03;101622.61;116734;1199;138615;-60
2021/10/08 07:59:15;;;;;;;21.60;8.10;;;;;;;8.18;50.92;101620.95;116823;1199;22468;-60
2021/10/08 08:01:43;;;;;;;20.40;9.90;;;;;;;8.20;50.72;101617.27;116691;1198;137536;-60
2021/10/08 08:04:13;;;;;;;15.80;9.00;;;;;;;8.22;50.65;101614.32;116867;1199;22290;-60
2021/10/08 08:06:40;;;;;;;19.00;9.60;;;;;;;8.26;51.11;101618.12;116864;1196;22320;-59
2021/10/08 08:09:09;;;;;;;24.50;8.70;;;;;;;8.32;50.98;101616.37;116795;1199;137108;-59
2021/10/08 08:11:37;;;;;;;23.30;8.60;;;;;;;8.38;50.95;101618.61;116841;1199;22285;-59
2021/10/08 08:14:09;;;;;;;26.60;10.00;;;;;;;8.46;50.70;101621.84;116749;1198;137591;-59
2021/10/08 08:16:38;;;;;;;22.20;9.60;;;;;;;8.54;50.82;101621.14;116797;1199;23424;-59
2021/10/08 08:19:07;;;;;;;23.10;8.40;;;;;;;8.67;50.75;101616.95;116781;1199;22533;-60
2021/10/08 08:21:36;;;;;;;28.40;7.30;;;;;;;8.82;49.45;101615.02;116777;1196;137074;-60
2021/10/08 08:24:04;;;;;;;19.20;6.90;;;;;;;8.97;47.84;101613.88;116839;1194;23245;-60
2021/10/08 08:26:38;;;;;;;15.10;5.10;;;;;;;9.10;47.51;101617.62;116742;1199;136919;-60
2021/10/08 08:29:06;;;;;;;16.30;4.80;;;;;;;9.24;46.33;101616.85;116884;1199;22272;-60
2021/10/08 08:31:35;;;;;;;21.70;5.50;;;;;;;9.36;45.38;101613.09;116681;1198;137456;-60
2021/10/08 08:34:04;;;;;;;20.50;5.10;;;;;;;9.47;45.27;101610.95;116820;1199;22401;-60
2021/10/08 08:36:34;;;;;;;11.10;4.90;;;;;;;9.58;45.06;101606.23;116752;1199;22249;-60
2021/10/08 08:39:09;;;;;;;10.60;3.80;;;;;;;9.70;44.04;101606.30;116628;1199;137396;-60
2021/10/08 08:41:38;;;;;;;14.10;3.90;;;;;;;9.79;43.57;101606.20;116910;1199;22272;-60
2021/10/08 08:44:07;;;;;;;17.60;4.80;;;;;;;9.86;43.57;101609.45;116650;1192;137554;-61
2021/10/08 08:46:35;;;;;;;10.60;4.00;;;;;;;9.90;43.16;101605.78;116721;1199;22369;-60
2021/10/08 08:49:03;;;;;;;10.20;3.70;;;;;;;9.96;42.30;101605.59;116807;1198;23192;-60
2021/10/08 08:51:32;;;;;;;10.30;4.70;;;;;;;10.02;42.19;101604.61;116692;1198;137122;-60
2021/10/08 08:54:03;;;;;;;6.00;3.70;;;;;;;10.09;41.89;101608.96;116839;1198;22263;-60
2021/10/08 08:56:31;;;;;;;6.30;4.10;;;;;;;10.12;41.52;101604.48;116658;1198;139685;-60
2021/10/08 08:59:04;;;;;;;12.50;4.60;;;;;;;10.14;41.41;101603.56;116870;1198;22263;-61
2021/10/08 09:01:33;;;;;;;15.40;4.10;;;;;;;10.15;40.84;101599.92;116790;1184;137473;-61
2021/10/08 09:04:06;;;;;;;10.10;3.60;;;;;;;10.18;40.71;101603.77;116816;1198;22371;-61
2021/10/08 09:06:39;;;;;;;9.50;3.50;;;;;;;10.20;41.27;101602.76;116852;1199;22325;-61
2021/10/08 09:09:17;;;;;;;11.50;3.70;;;;;;;10.22;40.69;101596.77;116587;1200;137333;-60
2021/10/08 09:11:46;;;;;;;15.20;3.70;;;;;;;10.23;40.33;101598.40;116883;1199;22295;-60
2021/10/08 09:14:15;;;;;;;5.30;3.20;;;;;;;10.21;40.00;101594.88;116700;1199;138401;-61
2021/10/08 09:17:13;;;;;;;15.90;3.60;;;;;;;10.17;40.85;101594.70;116811;1198;22250;-61
2021/10/08 09:19:46;;;;;;;7.70;3.60;;;;;;;10.20;40.74;101589.71;116645;1199;138499;-61
2021/10/08 09:22:19;;;;;;;16.00;4.30;;;;;;;10.19;40.89;101587.99;116767;1199;22358;-60
2021/10/08 09:24:47;;;;;;;9.60;3.50;;;;;;;10.17;41.44;101582.08;116808;1199;22534;-60
2021/10/08 09:27:16;;;;;;;9.60;3.20;;;;;;;10.17;41.11;101580.41;116703;1199;137235;-61
2021/10/08 09:29:53;;;;;;;6.70;3.60;;;;;;;10.21;40.88;101571.91;116897;1199;22291;-60
2021/10/08 09:32:22;;;;;;;10.50;3.70;;;;;;;10.25;40.56;101565.70;116742;1199;138471;-60
2021/10/08 09:35:24;;;;;;;14.50;6.70;;;;;;;10.35;40.72;101570.84;116831;1198;22935;-58
2021/10/08 09:37:56;;;;;;;13.70;6.70;;;;;;;10.46;40.80;101565.08;116190;1201;138041;-61
2021/10/08 09:40:28;;;;;;;8.20;4.90;;;;;;;10.55;40.04;101562.73;116289;1200;22340;-58
2021/10/08 09:42:58;;;;;;;6.60;3.70;;;;;;;10.57;39.38;101567.35;116230;1202;22268;-58
2021/10/08 09:45:36;;;;;;;6.20;2.80;;;;;;;10.56;39.38;101559.67;116108;1202;138370;-60
2021/10/08 09:48:05;;;;;;;12.30;3.20;;;;;;;10.56;39.55;101563.29;116307;1202;22237;-61
2021/10/08 09:50:34;;;;;;;11.40;2.80;;;;;;;10.56;38.48;101558.92;116145;1202;138993;-60
2021/10/08 09:53:15;;;;;;;14.40;3.20;;;;;;;10.57;38.23;101557.08;116140;1202;22732;-60
2021/10/08 09:55:43;;;;;;;13.10;3.00;;;;;;;10.55;37.33;101556.02;116044;1202;140347;-59
2021/10/08 09:58:11;;;;;;;9.70;2.90;;;;;;;10.53;37.41;101548.11;116230;1202;22308;-62
2021/10/08 10:00:50;;;;;;;13.20;3.80;;;;;;;10.53;37.63;101554.21;116095;1196;22557;-61
2021/10/08 10:03:19;;;;;;;17.50;5.10;;;;;;;10.56;38.02;101556.10;116088;1202;139003;-61
2021/10/08 10:05:47;;;;;;;34.90;13.00;;;;;;;10.59;37.83;101555.79;116191;1202;22323;-61
2021/10/08 10:08:15;;;;;;;9.10;3.60;;;;;;;10.58;36.97;101556.33;115968;1200;138830;-61
2021/10/08 10:10:46;;;;;;;11.70;5.90;;;;;;;10.52;37.96;101554.48;116194;1202;22262;-58
2021/10/08 10:13:16;;;;;;;23.80;7.50;;;;;;;10.51;38.10;101552.23;116115;1201;22323;-61
2021/10/08 10:15:45;;;;;;;17.60;6.20;;;;;;;10.52;37.69;101546.94;116396;1200;142124;-61
2021/10/08 10:18:16;;;;;;;26.20;10.50;;;;;;;10.50;38.39;101546.70;116788;1199;22452;-60
2021/10/08 10:20:52;;;;;;;26.40;15.00;;;;;;;10.52;38.76;101541.52;116589;1199;137662;-61
2021/10/08 10:23:21;;;;;;;37.60;20.40;;;;;;;10.57;38.90;101539.88;116677;1198;22325;-61
2021/10/08 10:25:51;;;;;;;11.00;5.20;;;;;;;10.60;38.88;101543.70;116662;1199;139036;-61
2021/10/08 10:28:19;;;;;;;8.40;4.10;;;;;;;10.63;38.89;101540.27;116786;1199;22217;-61
2021/10/08 10:30:49;;;;;;;15.70;3.90;;;;;;;10.67;38.79;101538.81;116809;1199;22286;-61
2021/10/08 10:33:28;;;;;;;18.00;5.70;;;;;;;10.69;38.12;101530.67;116599;1198;138088;-61
2021/10/08 10:36:00;;;;;;;5.70;3.20;;;;;;;10.73;37.10;101530.45;116787;1199;22310;-62
2021/10/08 10:38:39;;;;;;;12.90;5.60;;;;;;;10.76;37.10;101528.78;116693;1199;137160;-60
2021/10/08 10:41:07;;;;;;;10.30;3.80;;;;;;;10.78;36.81;101532.15;116761;1199;22193;-60
2021/10/08 10:43:43;;;;;;;9.50;4.60;;;;;;;10.77;36.50;101532.52;116654;1199;137389;-60
2021/10/08 10:46:19;;;;;;;7.00;3.20;;;;;;;10.76;37.22;101526.60;116773;1198;22365;-60
2021/10/08 10:49:25;;;;;;;10.20;3.10;;;;;;;10.76;37.71;101521.90;116788;1199;23161;-60
2021/10/08 10:51:57;;;;;;;16.40;3.50;;;;;;;10.76;37.17;101518.30;116611;1192;137714;-60
2021/10/08 10:54:37;;;;;;;18.80;4.10;;;;;;;10.75;36.78;101515.19;116876;1192;22284;-60
2021/10/08 10:57:13;;;;;;;19.10;3.70;;;;;;;10.79;36.24;101518.80;116691;1199;138128;-60
2021/10/08 10:59:41;;;;;;;12.40;4.00;;;;;;;10.83;35.53;101513.92;116738;1199;22290;-60
2021/10/08 11:02:16;;;;;;;8.60;3.00;;;;;;;10.87;35.99;101516.23;116703;1199;137512;-60
2021/10/08 11:04:46;;;;;;;6.60;2.70;;;;;;;10.92;36.09;101512.58;116765;1198;23055;-60
2021/10/08 11:07:16;;;;;;;7.20;2.50;;;;;;;10.96;36.06;101508.42;116800;1198;23093;-60
2021/10/08 11:10:04;;;;;;;13.30;3.00;;;;;;;10.98;35.64;101504.20;116693;1198;138168;-60
2021/10/08 11:12:40;;;;;;;10.60;2.80;;;;;;;11.01;35.65;101504.80;116804;1197;22400;-60
2021/10/08 11:15:16;;;;;;;5.40;2.40;;;;;;;11.05;35.00;101510.63;116707;1199;137295;-59
2021/10/08 11:17:53;;;;;;;9.90;1.90;;;;;;;11.08;35.10;101505.47;116809;1198;22326;-60
2021/10/08 11:20:44;;;;;;;9.10;2.70;;;;;;;11.09;34.99;101497.63;116574;1192;138296;-60
2021/10/08 11:23:29;;;;;;;12.50;1.70;;;;;;;11.14;34.84;101502.55;116812;1198;22370;-59
2021/10/08 11:25:59;;;;;;;14.40;2.20;;;;;;;11.18;34.10;101508.00;116680;1199;137474;-60
2021/10/08 11:30:23;;;;;;;5.30;2.20;;;;;;;11.20;34.43;101501.57;110780;1216;544845;-61